Time;durP1;ratioP1;P1;durP2;ratioP2;P2;SDS_P1;SDS_P2;PMS_P1;PMS_P2;Temp;Humidity;BMP_temperature;BMP_pressure;BME280_temperature;BME280_humidity;BME280_pressure;Samples;Min_cycle;Max_cycle;Signal;HPM_P1;HPM_P2
2024/02/15 00:02:53;;;;;;;40.40;25.30;;;;;;;6.79;68.73;100649.66;134080;1266;107601;-81
2024/02/15 00:05:59;;;;;;;28.50;16.10;;;;;;;6.78;68.62;100655.21;134066;1266;107951;-81
2024/02/15 00:09:05;;;;;;;43.90;23.50;;;;;;;6.76;68.84;100658.51;134060;1266;106541;-81
2024/02/15 00:12:12;;;;;;;44.00;22.00;;;;;;;6.74;68.73;100655.67;134066;1266;108515;-80
2024/02/15 00:15:19;;;;;;;39.80;18.30;;;;;;;6.72;68.82;100663.09;134045;1266;106294;-81
2024/02/15 00:18:25;;;;;;;35.50;18.30;;;;;;;6.69;68.81;100660.65;134070;1266;108795;-81
2024/02/15 00:21:31;;;;;;;27.60;14.30;;;;;;;6.68;68.70;100654.48;134081;1266;107948;-80
2024/02/15 00:24:38;;;;;;;33.50;17.70;;;;;;;6.69;68.88;100657.46;134072;1266;106988;-80
2024/02/15 00:27:44;;;;;;;22.20;12.60;;;;;;;6.69;69.01;100653.05;134057;1266;105757;-80
2024/02/15 00:30:50;;;;;;;22.00;12.20;;;;;;;6.68;69.00;100651.02;134064;1266;105754;-80
2024/02/15 00:33:56;;;;;;;48.40;19.80;;;;;;;6.67;69.07;100654.56;134076;1266;106753;-80
2024/02/15 00:37:02;;;;;;;35.80;18.00;;;;;;;6.67;68.86;100654.20;134066;1266;106395;-80
2024/02/15 00:40:09;;;;;;;34.20;17.50;;;;;;;6.67;68.86;100655.10;134089;1266;106609;-81
2024/02/15 00:43:15;;;;;;;27.10;14.50;;;;;;;6.67;68.89;100649.26;134063;1266;108788;-81
2024/02/15 00:46:20;;;;;;;22.30;13.00;;;;;;;6.67;68.86;100653.14;134087;1266;108708;-80
2024/02/15 00:49:27;;;;;;;21.10;11.40;;;;;;;6.66;68.91;100655.52;134073;1266;108739;-80
2024/02/15 00:52:33;;;;;;;25.40;13.10;;;;;;;6.66;69.13;100654.85;134086;1266;107678;-81
2024/02/15 00:55:39;;;;;;;15.60;9.00;;;;;;;6.66;69.12;100655.59;134047;1266;106615;-81
2024/02/15 00:58:44;;;;;;;19.90;10.20;;;;;;;6.67;68.98;100654.76;134019;1266;107586;-81
2024/02/15 01:01:50;;;;;;;16.50;9.70;;;;;;;6.72;69.01;100652.79;134050;1266;107762;-81
2024/02/15 01:04:57;;;;;;;18.50;11.20;;;;;;;6.78;69.16;100646.73;134032;1266;107612;-81
2024/02/15 01:08:02;;;;;;;14.80;9.30;;;;;;;6.83;69.06;100649.86;134057;1266;107794;-81
2024/02/15 01:11:09;;;;;;;16.30;10.00;;;;;;;6.88;68.93;100650.35;134072;1266;109152;-80
2024/02/15 01:14:15;;;;;;;16.20;9.40;;;;;;;6.92;68.81;100654.45;134048;1266;107718;-82
2024/02/15 01:17:20;;;;;;;16.20;9.20;;;;;;;6.91;68.81;100655.27;134055;1266;108766;-80
2024/02/15 01:20:26;;;;;;;15.00;9.40;;;;;;;6.91;68.87;100651.01;134082;1266;106489;-81
2024/02/15 01:23:32;;;;;;;18.50;10.30;;;;;;;6.91;68.76;100646.27;134070;1266;107741;-81
2024/02/15 01:26:38;;;;;;;17.50;10.50;;;;;;;6.89;68.74;100647.23;134071;1266;107923;-80
2024/02/15 01:29:43;;;;;;;15.80;9.50;;;;;;;6.89;68.97;100649.75;134058;1266;108858;-82
2024/02/15 01:32:49;;;;;;;14.60;9.70;;;;;;;6.88;68.77;100650.35;134070;1266;108695;-81
2024/02/15 01:35:54;;;;;;;15.30;9.80;;;;;;;6.86;68.89;100650.13;134123;1266;108037;-80
2024/02/15 01:39:00;;;;;;;17.80;9.40;;;;;;;6.84;68.98;100647.67;134062;1266;108818;-81
2024/02/15 01:42:06;;;;;;;18.20;10.30;;;;;;;6.81;68.85;100644.02;134056;1266;108696;-81
2024/02/15 01:45:11;;;;;;;;;;;;;;;6.76;68.87;100636.64;134076;1266;108699;-81
2024/02/15 01:48:18;;;;;;;16.80;10.10;;;;;;;6.74;69.10;100635.35;134066;1266;107043;-82
2024/02/15 01:51:24;;;;;;;15.90;10.30;;;;;;;6.74;69.05;100637.80;134134;1266;108688;-81
2024/02/15 01:54:31;;;;;;;15.40;9.60;;;;;;;6.74;69.19;100635.90;134119;1266;108697;-81
2024/02/15 01:57:38;;;;;;;15.70;9.80;;;;;;;6.71;69.07;100635.38;134139;1265;107744;-81
2024/02/15 02:00:44;;;;;;;15.80;9.50;;;;;;;6.71;69.33;100636.48;134137;1265;107539;-82
2024/02/15 02:03:50;;;;;;;17.00;9.60;;;;;;;6.69;69.45;100632.86;134115;1266;108751;-81
2024/02/15 02:06:58;;;;;;;13.80;9.50;;;;;;;6.67;69.34;100637.81;134057;1266;107824;-81
2024/02/15 02:10:05;;;;;;;17.00;10.00;;;;;;;6.66;69.45;100641.57;134057;1266;107586;-82
2024/02/15 02:13:11;;;;;;;16.50;10.00;;;;;;;6.66;69.54;100638.90;134079;1266;108834;-80
2024/02/15 02:16:31;;;;;;;17.10;9.50;;;;;;;6.66;69.79;100634.90;134061;1266;108736;-82
2024/02/15 02:19:38;;;;;;;16.00;9.00;;;;;;;6.65;70.02;100632.80;134045;1266;108076;-82
2024/02/15 02:22:45;;;;;;;17.60;9.60;;;;;;;6.68;70.01;100631.55;134085;1266;108765;-81
2024/02/15 02:25:51;;;;;;;18.90;10.00;;;;;;;6.75;70.01;100623.27;134044;1266;108716;-81
2024/02/15 02:28:56;;;;;;;19.80;10.40;;;;;;;6.83;70.13;100621.89;134069;1266;107697;-81
2024/02/15 02:32:02;;;;;;;17.10;10.50;;;;;;;6.89;70.16;100621.41;134076;1266;108709;-81
2024/02/15 02:35:11;;;;;;;18.20;10.90;;;;;;;6.92;70.15;100620.55;134091;1266;107895;-82
2024/02/15 02:38:17;;;;;;;15.50;10.30;;;;;;;6.92;70.22;100618.57;134070;1266;107806;-81
2024/02/15 02:41:23;;;;;;;18.30;10.70;;;;;;;6.94;70.26;100617.02;134099;1266;107121;-80
2024/02/15 02:44:29;;;;;;;18.70;11.00;;;;;;;6.93;70.39;100619.52;134059;1266;107948;-81
2024/02/15 02:47:34;;;;;;;15.20;10.00;;;;;;;6.92;70.29;100621.60;134095;1266;106305;-80
2024/02/15 02:50:40;;;;;;;18.80;10.80;;;;;;;6.90;70.44;100621.00;134085;1266;107908;-81
2024/02/15 02:53:45;;;;;;;18.90;11.40;;;;;;;6.88;70.55;100619.36;134071;1266;108727;-80
2024/02/15 02:56:51;;;;;;;17.10;11.10;;;;;;;6.85;70.35;100619.48;134067;1266;106680;-82
2024/02/15 02:59:57;;;;;;;18.40;10.90;;;;;;;6.84;70.47;100620.20;134098;1266;107684;-82
2024/02/15 03:03:02;;;;;;;20.40;11.40;;;;;;;6.84;70.50;100616.54;134052;1266;107609;-81
2024/02/15 03:06:08;;;;;;;18.50;11.30;;;;;;;6.83;70.76;100616.61;134084;1266;107102;-81
2024/02/15 03:09:14;;;;;;;16.90;10.00;;;;;;;6.82;70.70;100614.25;134039;1266;108706;-80
2024/02/15 03:12:20;;;;;;;17.00;10.00;;;;;;;6.81;70.88;100613.73;134037;1266;107493;-80
2024/02/15 03:15:25;;;;;;;19.90;11.40;;;;;;;6.82;71.06;100614.73;134055;1266;108513;-81
2024/02/15 03:18:32;;;;;;;20.10;12.40;;;;;;;6.86;71.25;100613.89;134076;1266;108292;-80
2024/02/15 03:21:37;;;;;;;20.70;12.30;;;;;;;6.91;71.44;100616.73;134085;1266;107726;-81
2024/02/15 03:24:43;;;;;;;22.70;13.20;;;;;;;6.93;71.23;100612.47;134065;1266;106856;-81
2024/02/15 03:27:48;;;;;;;20.50;12.80;;;;;;;6.94;71.40;100618.06;134046;1266;106835;-81
2024/02/15 03:30:55;;;;;;;18.90;12.60;;;;;;;6.94;71.49;100620.71;134035;1266;107028;-81
2024/02/15 03:34:01;;;;;;;19.60;12.60;;;;;;;6.92;71.54;100619.66;134039;1266;107100;-81
2024/02/15 03:37:07;;;;;;;17.90;12.60;;;;;;;6.91;71.56;100622.52;134053;1267;106940;-81
2024/02/15 03:40:14;;;;;;;20.20;13.20;;;;;;;6.87;71.81;100623.00;134062;1266;108886;-83
2024/02/15 03:43:19;;;;;;;21.50;13.70;;;;;;;6.85;72.06;100625.97;134068;1266;108091;-80
2024/02/15 03:46:25;;;;;;;21.70;14.30;;;;;;;6.83;72.16;100629.85;134073;1266;107084;-80
2024/02/15 03:49:31;;;;;;;26.00;13.30;;;;;;;6.79;72.32;100628.92;133951;1266;141855;-80
2024/02/15 03:52:37;;;;;;;21.50;13.10;;;;;;;6.78;72.54;100632.38;134062;1266;108111;-79
2024/02/15 03:55:42;;;;;;;24.50;14.70;;;;;;;6.78;72.45;100631.98;134060;1266;107961;-80
2024/02/15 03:58:50;;;;;;;26.30;14.60;;;;;;;6.81;72.72;100632.47;134078;1266;108363;-80
2024/02/15 04:01:56;;;;;;;23.80;14.70;;;;;;;6.86;72.84;100632.84;134071;1266;106608;-80
2024/02/15 04:05:04;;;;;;;23.20;15.10;;;;;;;6.86;72.78;100631.90;134077;1266;108534;-80
2024/02/15 04:08:12;;;;;;;29.10;17.30;;;;;;;6.88;72.88;100630.16;134036;1267;109527;-80
2024/02/15 04:11:19;;;;;;;31.00;17.80;;;;;;;6.88;73.11;100626.11;134037;1267;106693;-80
2024/02/15 04:14:25;;;;;;;31.50;18.00;;;;;;;6.88;73.05;100626.49;134025;1267;107869;-80
2024/02/15 04:17:32;;;;;;;123.00;55.50;;;;;;;6.84;73.22;100623.74;134040;1267;106121;-80
2024/02/15 04:20:38;;;;;;;43.60;22.90;;;;;;;6.85;73.48;100626.38;134039;1267;108592;-80
2024/02/15 04:23:44;;;;;;;31.10;17.40;;;;;;;6.84;73.52;100621.65;134041;1267;106456;-80
2024/02/15 04:26:51;;;;;;;25.50;15.60;;;;;;;6.81;73.68;100623.70;134019;1267;108807;-79
2024/02/15 04:29:57;;;;;;;25.30;15.50;;;;;;;6.78;73.87;100625.84;134001;1269;106499;-79
2024/02/15 04:33:02;;;;;;;26.80;15.80;;;;;;;6.80;74.04;100626.90;134022;1268;108752;-80
2024/02/15 04:36:08;;;;;;;27.90;16.40;;;;;;;6.82;74.10;100626.04;134053;1267;107925;-80
2024/02/15 04:39:23;;;;;;;28.90;18.00;;;;;;;6.85;74.44;100620.54;134025;1266;108633;-80
2024/02/15 04:42:30;;;;;;;27.00;17.40;;;;;;;6.87;74.48;100618.73;134031;1266;107715;-80
2024/02/15 04:45:36;;;;;;;28.80;18.50;;;;;;;6.89;74.75;100618.80;134063;1266;108792;-80
2024/02/15 04:48:42;;;;;;;27.60;18.20;;;;;;;6.85;74.90;100615.71;134059;1266;106983;-80
2024/02/15 04:51:48;;;;;;;30.40;17.80;;;;;;;6.84;74.98;100617.09;134052;1266;106706;-80
2024/02/15 04:54:55;;;;;;;28.60;17.90;;;;;;;6.81;75.04;100617.84;134044;1268;108533;-80
2024/02/15 04:58:00;;;;;;;215.90;72.40;;;;;;;6.76;75.25;100621.79;134020;1267;107604;-80
2024/02/15 05:01:06;;;;;;;42.40;22.30;;;;;;;6.69;75.46;100623.16;134007;1269;107612;-80
2024/02/15 05:04:12;;;;;;;33.20;19.40;;;;;;;6.69;75.53;100622.98;134025;1267;108019;-80
2024/02/15 05:07:18;;;;;;;44.50;24.00;;;;;;;6.70;75.62;100619.01;134034;1266;108896;-79
2024/02/15 05:10:24;;;;;;;37.70;21.10;;;;;;;6.73;75.65;100624.15;134032;1267;109963;-80
2024/02/15 05:13:29;;;;;;;37.10;24.10;;;;;;;6.77;75.59;100624.15;134075;1266;107680;-80
2024/02/15 05:16:41;;;;;;;34.40;22.00;;;;;;;6.79;75.83;100627.00;134067;1266;106606;-80
2024/02/15 05:19:47;;;;;;;37.10;24.90;;;;;;;6.79;75.78;100629.84;134066;1266;107126;-80
2024/02/15 05:22:53;;;;;;;38.20;26.30;;;;;;;6.78;76.10;100624.95;134074;1266;107589;-79
2024/02/15 05:25:59;;;;;;;36.70;24.80;;;;;;;6.78;75.89;100624.59;134040;1267;106797;-79
2024/02/15 05:29:04;;;;;;;28.30;19.20;;;;;;;6.77;75.87;100622.61;134049;1267;107828;-80
2024/02/15 05:32:10;;;;;;;33.00;22.00;;;;;;;6.74;76.15;100626.88;134042;1266;106726;-80
2024/02/15 05:35:17;;;;;;;35.90;24.00;;;;;;;6.76;76.20;100631.27;134040;1266;107755;-80
2024/02/15 05:38:23;;;;;;;31.20;21.00;;;;;;;6.83;76.28;100633.61;134065;1266;106425;-80
2024/02/15 05:41:29;;;;;;;36.70;23.50;;;;;;;6.87;76.26;100640.30;134082;1266;108236;-80
2024/02/15 05:44:35;;;;;;;32.70;21.40;;;;;;;6.92;76.42;100640.99;134040;1266;107779;-80
2024/02/15 05:47:44;;;;;;;37.40;23.50;;;;;;;6.94;76.48;100639.76;134054;1266;107092;-81
2024/02/15 05:50:54;;;;;;;39.70;22.80;;;;;;;6.95;76.63;100643.79;134053;1266;106768;-80
2024/02/15 05:54:00;;;;;;;42.90;25.20;;;;;;;6.96;76.47;100651.17;134065;1266;108753;-79
2024/02/15 05:57:07;;;;;;;44.50;24.60;;;;;;;6.94;76.68;100650.90;134126;1266;107750;-79
2024/02/15 06:00:18;;;;;;;72.70;38.40;;;;;;;6.93;76.67;100653.29;134103;1265;106725;-79
2024/02/15 06:03:26;;;;;;;39.20;22.60;;;;;;;6.95;76.88;100652.98;134070;1266;105481;-81
2024/02/15 06:06:33;;;;;;;71.60;42.20;;;;;;;6.98;76.75;100650.59;134060;1266;107303;-81
2024/02/15 06:09:40;;;;;;;44.60;27.50;;;;;;;7.04;77.17;100653.31;134043;1267;108545;-81
2024/02/15 06:12:45;;;;;;;37.90;23.80;;;;;;;7.07;76.96;100656.27;134045;1266;108749;-80
2024/02/15 06:15:53;;;;;;;36.90;23.20;;;;;;;7.09;76.89;100655.80;134054;1266;108793;-81
2024/02/15 06:18:59;;;;;;;36.70;21.20;;;;;;;7.10;77.12;100664.59;134067;1266;107812;-81
2024/02/15 06:22:05;;;;;;;32.60;21.80;;;;;;;7.07;77.03;100667.21;134041;1266;107654;-80
2024/02/15 06:25:11;;;;;;;35.10;23.70;;;;;;;7.03;77.01;100666.46;134048;1266;108777;-80
2024/02/15 06:39:37;;;;;;;27.20;17.80;;;;;;;7.01;77.06;100673.41;134031;1266;108680;-80
2024/02/15 06:41:56;;;;;;;30.30;18.70;;;;;;;7.17;77.38;100683.64;134016;1267;108747;-80
2024/02/15 06:45:02;;;;;;;50.40;29.60;;;;;;;7.21;77.57;100685.11;134017;1267;107864;-80
2024/02/15 06:48:08;;;;;;;43.20;29.50;;;;;;;7.23;77.36;100681.42;134013;1267;108754;-80
2024/02/15 06:51:15;;;;;;;36.50;24.30;;;;;;;7.24;77.68;100678.29;134023;1267;107511;-81
2024/02/15 06:54:22;;;;;;;39.90;22.80;;;;;;;7.25;77.65;100681.26;134019;1267;106503;-80
2024/02/15 06:57:28;;;;;;;46.40;28.20;;;;;;;7.26;77.76;100681.67;134022;1267;107174;-80
2024/02/15 07:00:34;;;;;;;38.20;22.30;;;;;;;7.25;77.75;100676.84;134023;1269;108821;-81
2024/02/15 07:03:39;;;;;;;35.40;20.80;;;;;;;7.26;77.76;100679.20;134011;1267;107035;-81
2024/02/15 07:06:47;;;;;;;33.50;21.20;;;;;;;7.31;78.00;100680.25;134022;1267;106026;-80
2024/02/15 07:09:53;;;;;;;27.90;16.90;;;;;;;7.40;77.98;100682.34;134022;1267;108421;-81
2024/02/15 07:13:00;;;;;;;33.90;20.10;;;;;;;7.52;78.12;100681.90;134028;1267;107305;-81
2024/02/15 07:16:09;;;;;;;32.50;20.80;;;;;;;7.62;78.09;100680.98;134021;1267;108718;-80
2024/02/15 07:19:15;;;;;;;42.40;26.60;;;;;;;7.68;77.76;100679.59;134030;1267;108550;-80
2024/02/15 07:22:22;;;;;;;45.10;28.80;;;;;;;7.70;77.95;100682.31;134036;1267;106708;-81
2024/02/15 07:25:27;;;;;;;50.60;29.70;;;;;;;7.71;77.95;100683.20;133939;1267;107721;-80
2024/02/15 07:28:33;;;;;;;50.00;29.00;;;;;;;7.75;78.03;100687.90;134016;1267;106731;-80
2024/02/15 07:31:39;;;;;;;46.30;27.20;;;;;;;7.77;78.21;100687.73;134021;1267;107038;-80
2024/02/15 07:34:45;;;;;;;52.60;34.40;;;;;;;7.83;78.14;100685.64;133991;1267;107531;-80
2024/02/15 07:38:00;;;;;;;64.90;36.10;;;;;;;7.92;78.08;100682.45;134018;1267;107227;-80
2024/02/15 07:41:06;;;;;;;40.80;25.60;;;;;;;8.03;78.15;100679.77;134015;1267;108798;-80
2024/02/15 07:44:11;;;;;;;35.80;22.40;;;;;;;8.14;78.20;100683.09;134016;1267;106381;-81
2024/02/15 07:47:20;;;;;;;43.20;25.90;;;;;;;8.24;78.03;100680.36;134005;1267;108649;-80
2024/02/15 07:50:26;;;;;;;42.60;24.10;;;;;;;8.31;77.99;100682.73;134026;1270;108645;-81
2024/02/15 07:53:31;;;;;;;34.30;22.40;;;;;;;8.34;78.02;100682.17;134042;1267;107808;-81
2024/02/15 07:56:38;;;;;;;36.50;23.40;;;;;;;8.35;77.94;100678.70;134018;1267;108703;-81
2024/02/15 07:59:44;;;;;;;36.70;23.40;;;;;;;8.34;77.77;100675.45;134023;1267;106757;-81
2024/02/15 08:02:50;;;;;;;36.40;22.40;;;;;;;8.34;77.90;100672.27;134021;1267;108794;-80
2024/02/15 08:05:55;;;;;;;38.60;21.30;;;;;;;8.35;78.34;100668.80;133999;1267;105958;-80
2024/02/15 08:09:01;;;;;;;29.20;17.60;;;;;;;8.39;78.11;100664.00;133991;1267;106722;-81
2024/02/15 08:12:07;;;;;;;29.10;19.00;;;;;;;8.47;78.20;100664.30;134054;1269;108691;-81
2024/02/15 08:15:14;;;;;;;110.00;53.90;;;;;;;8.54;78.13;100664.34;134061;1267;107769;-80
2024/02/15 08:18:20;;;;;;;45.40;26.30;;;;;;;8.65;78.30;100665.42;133991;1267;108529;-81
2024/02/15 08:21:30;;;;;;;38.70;22.90;;;;;;;8.75;78.02;100669.21;133925;1269;107451;-80
2024/02/15 08:24:36;;;;;;;73.80;39.50;;;;;;;8.84;77.98;100670.91;134019;1267;107724;-81
2024/02/15 08:27:44;;;;;;;48.90;27.80;;;;;;;8.90;77.89;100673.39;134034;1267;108623;-80
2024/02/15 08:30:49;;;;;;;38.00;22.80;;;;;;;8.95;77.82;100673.15;134033;1267;108698;-80
2024/02/15 08:33:55;;;;;;;33.30;20.80;;;;;;;8.96;78.16;100671.95;134014;1267;107555;-81
2024/02/15 08:37:02;;;;;;;37.10;23.10;;;;;;;8.98;77.99;100671.41;134035;1267;106582;-80
2024/02/15 08:40:35;;;;;;;38.80;24.50;;;;;;;9.00;78.03;100676.96;133995;1267;106851;-82
2024/02/15 08:43:49;;;;;;;29.40;19.40;;;;;;;9.06;78.22;100680.77;133790;1267;108131;-81
2024/02/15 08:46:56;;;;;;;35.30;21.10;;;;;;;9.12;78.28;100679.71;133918;1267;110038;-81
2024/02/15 08:50:02;;;;;;;29.60;19.40;;;;;;;9.20;78.10;100681.63;134021;1267;107786;-81
2024/02/15 08:53:08;;;;;;;33.10;20.00;;;;;;;9.24;78.11;100680.55;134028;1267;107707;-81
2024/02/15 08:56:13;;;;;;;34.70;22.90;;;;;;;9.31;78.12;100682.39;134018;1267;105809;-81
2024/02/15 08:59:19;;;;;;;32.50;20.70;;;;;;;9.39;77.79;100685.27;134067;1266;109581;-81
2024/02/15 09:02:24;;;;;;;30.40;20.10;;;;;;;9.46;77.94;100684.17;134068;1267;107776;-80
2024/02/15 09:05:30;;;;;;;32.40;21.30;;;;;;;9.52;77.90;100686.11;134041;1267;106438;-80
2024/02/15 09:08:35;;;;;;;32.80;20.60;;;;;;;9.57;77.77;100687.25;134052;1267;107624;-81
2024/02/15 09:11:41;;;;;;;29.20;20.20;;;;;;;9.64;77.73;100687.00;134091;1267;107804;-81
2024/02/15 09:14:47;;;;;;;31.30;21.20;;;;;;;9.71;77.78;100687.48;134032;1267;108525;-81
2024/02/15 09:17:54;;;;;;;27.80;19.00;;;;;;;9.74;77.90;100685.77;134007;1267;108793;-80
2024/02/15 09:21:00;;;;;;;28.00;17.60;;;;;;;9.77;77.68;100687.80;134059;1266;107865;-80
2024/02/15 09:24:06;;;;;;;41.00;24.40;;;;;;;9.77;77.73;100690.27;134045;1267;108740;-81
2024/02/15 09:27:12;;;;;;;34.20;21.30;;;;;;;9.78;77.78;100692.63;134043;1266;106557;-81
2024/02/15 09:30:18;;;;;;;31.60;20.20;;;;;;;9.85;77.86;100692.75;134036;1267;106639;-80
2024/02/15 09:33:23;;;;;;;30.70;20.90;;;;;;;9.91;77.80;100697.04;134078;1267;108635;-80
2024/02/15 09:36:29;;;;;;;31.70;20.10;;;;;;;9.98;77.83;100702.80;134062;1266;108435;-81
2024/02/15 09:39:36;;;;;;;33.70;21.30;;;;;;;10.04;77.78;100700.53;134074;1267;108852;-81
2024/02/15 09:42:44;;;;;;;32.80;21.50;;;;;;;10.10;77.73;100703.54;134075;1266;106865;-80
2024/02/15 09:45:50;;;;;;;31.40;20.30;;;;;;;10.14;77.77;100700.98;134053;1267;108675;-82
2024/02/15 09:48:59;;;;;;;31.50;21.10;;;;;;;10.19;77.54;100703.74;134065;1266;106417;-81
2024/02/15 09:52:06;;;;;;;37.60;22.60;;;;;;;10.24;77.87;100705.42;134073;1266;106929;-80
2024/02/15 09:55:13;;;;;;;64.90;29.90;;;;;;;10.32;77.89;100699.98;134040;1267;107429;-81
2024/02/15 09:58:19;;;;;;;30.20;18.60;;;;;;;10.41;77.79;100695.23;134035;1267;108689;-81
2024/02/15 10:01:27;;;;;;;29.50;18.70;;;;;;;10.51;77.51;100689.61;134047;1267;107581;-81
2024/02/15 10:04:35;;;;;;;28.70;19.00;;;;;;;10.65;77.60;100689.29;134042;1267;109325;-81
2024/02/15 10:07:40;;;;;;;71.80;43.60;;;;;;;10.80;77.51;100687.63;134051;1266;108710;-81
2024/02/15 10:10:46;;;;;;;69.40;42.30;;;;;;;10.92;77.27;100683.33;134056;1267;108728;-81
2024/02/15 10:13:52;;;;;;;55.10;36.90;;;;;;;11.01;77.51;100680.69;134054;1266;107221;-81
2024/02/15 10:16:57;;;;;;;43.30;31.20;;;;;;;11.09;77.38;100678.86;134046;1267;107791;-81
2024/02/15 10:20:09;;;;;;;34.50;22.90;;;;;;;11.15;77.33;100679.44;134056;1267;107946;-81
2024/02/15 10:23:17;;;;;;;37.40;25.50;;;;;;;11.21;77.26;100677.89;134054;1266;106768;-81
2024/02/15 10:26:23;;;;;;;29.20;20.90;;;;;;;11.30;77.28;100678.64;134056;1267;108866;-81
2024/02/15 10:29:29;;;;;;;28.50;18.70;;;;;;;11.35;76.86;100678.72;134060;1266;107685;-80
2024/02/15 10:32:38;;;;;;;32.70;20.10;;;;;;;11.36;77.03;100675.04;134053;1266;107729;-80
2024/02/15 10:35:44;;;;;;;32.80;21.80;;;;;;;11.42;77.09;100673.41;134075;1267;106906;-80
2024/02/15 10:38:50;;;;;;;26.60;19.50;;;;;;;11.47;76.99;100668.11;134045;1267;107860;-81
2024/02/15 10:41:57;;;;;;;29.60;19.70;;;;;;;11.50;77.25;100668.02;134044;1266;108794;-82
2024/02/15 10:45:04;;;;;;;27.30;18.90;;;;;;;11.58;77.15;100664.91;134083;1267;108716;-81
2024/02/15 10:48:10;;;;;;;24.90;18.20;;;;;;;11.67;76.95;100666.88;134052;1267;108713;-81
2024/02/15 10:51:17;;;;;;;27.20;18.90;;;;;;;11.77;76.99;100660.27;134065;1267;106752;-81
2024/02/15 10:54:42;;;;;;;27.00;18.30;;;;;;;11.87;76.92;100654.05;134067;1267;107884;-81
2024/02/15 10:57:51;;;;;;;29.70;21.00;;;;;;;11.97;76.36;100654.15;134062;1267;107467;-80
2024/02/15 11:01:01;;;;;;;28.90;19.20;;;;;;;12.00;76.72;100657.06;134029;1266;108903;-81
2024/02/15 11:04:12;;;;;;;25.60;18.40;;;;;;;12.02;76.71;100649.98;134051;1267;108509;-80
2024/02/15 11:07:18;;;;;;;24.00;17.30;;;;;;;11.96;76.45;100650.31;134031;1267;108725;-80
2024/02/15 11:10:25;;;;;;;28.70;18.20;;;;;;;11.92;76.76;100646.80;134043;1267;107526;-80
2024/02/15 11:13:33;;;;;;;24.80;18.50;;;;;;;11.91;76.44;100642.83;134037;1266;108928;-82
2024/02/15 11:16:46;;;;;;;26.70;18.00;;;;;;;11.90;76.60;100647.89;134007;1266;108163;-82
2024/02/15 11:19:52;;;;;;;25.50;17.90;;;;;;;11.89;76.50;100648.56;134038;1266;108759;-81
2024/02/15 11:23:01;;;;;;;26.10;17.70;;;;;;;11.84;76.43;100650.85;134058;1266;106842;-81
2024/02/15 11:26:11;;;;;;;23.00;17.30;;;;;;;11.76;76.56;100646.93;134048;1267;107741;-82
2024/02/15 11:29:47;;;;;;;26.30;16.20;;;;;;;11.73;76.93;100644.02;134030;1266;106987;-82
2024/02/15 11:32:53;;;;;;;24.00;16.60;;;;;;;11.79;77.07;100638.48;134040;1267;108680;-81
2024/02/15 11:36:06;;;;;;;22.50;15.70;;;;;;;11.89;77.22;100639.05;134045;1266;108547;-81
2024/02/15 11:39:43;;;;;;;22.70;15.90;;;;;;;12.00;76.94;100635.84;134060;1266;107055;-82
2024/02/15 11:42:50;;;;;;;23.80;16.20;;;;;;;12.12;76.74;100634.86;134028;1266;108432;-81
2024/02/15 11:46:03;;;;;;;23.90;15.70;;;;;;;12.21;76.74;100634.84;134028;1267;108829;-83
2024/02/15 11:49:17;;;;;;;23.20;16.70;;;;;;;12.28;76.83;100636.33;134111;1266;107747;-83
2024/02/15 11:52:24;;;;;;;24.80;16.70;;;;;;;12.33;76.74;100633.31;134110;1267;107897;-82
2024/02/15 11:55:29;;;;;;;24.40;16.30;;;;;;;12.36;76.64;100633.20;134059;1266;108304;-82
2024/02/15 11:58:51;;;;;;;46.90;29.60;;;;;;;12.40;76.81;100632.76;134041;1266;107073;-81
2024/02/15 12:18:58;;;;;;;23.60;16.10;;;;;;;12.07;76.67;100635.16;134031;1266;106760;-82
2024/02/15 13:24:44;;;;;;;18.50;14.20;;;;;;;12.29;76.53;100596.91;127529;1290;647867;-78
2024/02/15 13:27:51;;;;;;;20.10;14.70;;;;;;;12.38;76.33;100593.54;130062;1283;118877;-78
2024/02/15 13:30:56;;;;;;;20.40;15.20;;;;;;;12.37;76.37;100586.13;130436;1265;108512;-79
2024/02/15 13:34:02;;;;;;;26.60;18.00;;;;;;;12.38;76.28;100586.02;130384;1260;108569;-80
2024/02/15 13:37:08;;;;;;;23.40;16.00;;;;;;;12.39;76.20;100580.95;130399;1267;106692;-79
2024/02/15 13:40:15;;;;;;;24.10;16.10;;;;;;;12.39;76.25;100580.26;130342;1266;108485;-78
2024/02/15 13:43:21;;;;;;;36.60;25.50;;;;;;;12.37;76.24;100580.02;130313;1283;108702;-79
2024/02/15 13:46:27;;;;;;;24.30;17.50;;;;;;;12.34;76.00;100582.71;130322;1263;106562;-78
2024/02/15 13:49:34;;;;;;;21.90;14.40;;;;;;;12.33;76.20;100586.73;130230;1263;108673;-78
2024/02/15 13:52:41;;;;;;;21.40;14.80;;;;;;;12.36;76.13;100591.77;130232;1263;106385;-79
2024/02/15 13:55:47;;;;;;;17.50;13.10;;;;;;;12.43;76.24;100585.36;130242;1265;107085;-78
2024/02/15 13:58:53;;;;;;;21.50;13.30;;;;;;;12.49;76.11;100587.71;130260;1261;107550;-79
2024/02/15 14:01:58;;;;;;;22.90;14.40;;;;;;;12.52;75.92;100585.13;130304;1265;106173;-79
2024/02/15 14:05:08;;;;;;;18.30;12.80;;;;;;;12.53;75.74;100579.89;130325;1265;108609;-79
2024/02/15 14:08:13;;;;;;;18.30;13.40;;;;;;;12.49;75.82;100577.73;130054;1263;108652;-82
2024/02/15 14:11:19;;;;;;;17.60;12.50;;;;;;;12.43;75.76;100579.33;130355;1263;106616;-81
2024/02/15 14:14:25;;;;;;;17.10;12.10;;;;;;;12.35;75.79;100584.91;130461;1264;107872;-83
2024/02/15 14:17:30;;;;;;;18.40;12.70;;;;;;;12.27;75.77;100589.44;130562;1260;106738;-83
2024/02/15 14:20:37;;;;;;;17.00;11.60;;;;;;;12.23;75.70;100589.06;130541;1261;108248;-84
2024/02/15 14:23:49;;;;;;;17.90;11.60;;;;;;;12.14;75.56;100592.05;130429;1257;107683;-85
2024/02/15 14:27:06;;;;;;;21.70;14.20;;;;;;;12.07;75.59;100595.27;130678;1259;108668;-84
2024/02/15 14:33:59;;;;;;;19.70;13.30;;;;;;;11.97;75.67;100605.71;130617;1262;108610;-84
2024/02/15 14:37:26;;;;;;;19.30;12.40;;;;;;;11.91;75.62;100604.89;130743;1259;106810;-85
2024/02/15 14:40:33;;;;;;;22.60;12.80;;;;;;;11.84;75.81;100597.90;130621;1262;106881;-82
2024/02/15 14:43:46;;;;;;;26.60;14.30;;;;;;;11.79;75.67;100598.90;130577;1259;108546;-81
2024/02/15 14:46:58;;;;;;;27.80;15.40;;;;;;;11.77;75.55;100598.73;130563;1261;108622;-83
2024/02/15 14:50:08;;;;;;;28.70;16.00;;;;;;;11.77;75.67;100599.08;130653;1259;107589;-84
2024/02/15 14:53:15;;;;;;;26.20;15.70;;;;;;;11.77;75.74;100602.12;130491;1260;108781;-84
2024/02/15 14:56:21;;;;;;;24.80;14.80;;;;;;;11.75;75.47;100606.94;130577;1259;108585;-84
2024/02/15 14:59:27;;;;;;;23.20;15.60;;;;;;;11.71;75.60;100605.02;130574;1259;107674;-84
2024/02/15 15:02:32;;;;;;;21.20;13.70;;;;;;;11.67;75.61;100605.44;130555;1264;108658;-84
2024/02/15 15:15:50;;;;;;;18.90;12.50;;;;;;;11.43;75.66;100606.55;131009;1257;106409;-84
2024/02/15 15:18:56;;;;;;;19.60;13.00;;;;;;;11.37;75.51;100604.61;130615;1263;106919;-83
2024/02/15 15:22:04;;;;;;;19.30;13.00;;;;;;;11.29;75.57;100605.41;130550;1263;106410;-84
2024/02/15 15:25:11;;;;;;;18.60;13.30;;;;;;;11.20;75.69;100603.02;130558;1259;108400;-83
2024/02/15 15:28:19;;;;;;;21.00;12.60;;;;;;;11.14;75.91;100605.08;130308;1259;108690;-83
2024/02/15 15:31:25;;;;;;;18.20;11.70;;;;;;;11.09;75.61;100609.65;130356;1265;108581;-83
2024/02/15 15:34:32;;;;;;;17.80;10.80;;;;;;;11.06;75.76;100609.08;130645;1259;106701;-83
2024/02/15 15:37:38;;;;;;;19.70;12.20;;;;;;;11.05;75.64;100609.48;130707;1263;107846;-85
2024/02/15 15:40:44;;;;;;;18.20;12.80;;;;;;;11.05;75.66;100614.27;130903;1260;107829;-83
2024/02/15 15:43:50;;;;;;;20.30;12.30;;;;;;;11.05;75.89;100609.98;130344;1263;107361;-83